createdAt,value
2022-12-19T00:01:37.543Z,86.99
2022-12-19T00:04:09.984Z,86.84
2022-12-19T00:06:43.673Z,86.92
2022-12-19T00:09:12.556Z,86.64
2022-12-19T00:11:40.638Z,86.76
2022-12-19T00:14:11.309Z,86.96
2022-12-19T00:16:38.360Z,86.64
2022-12-19T00:19:06.004Z,86.89
2022-12-19T00:21:37.450Z,86.83
2022-12-19T00:24:20.794Z,86.88
2022-12-19T00:26:49.680Z,87.05
2022-12-19T00:29:16.625Z,86.96
2022-12-19T00:31:44.545Z,86.98
2022-12-19T00:34:14.054Z,87.12
2022-12-19T00:36:41.024Z,87.16
2022-12-19T00:39:08.791Z,87.20
2022-12-19T00:41:41.525Z,87.38
2022-12-19T00:44:14.202Z,87.02
2022-12-19T00:46:41.522Z,87.07
2022-12-19T00:49:08.553Z,87.08
2022-12-19T00:51:37.454Z,87.02
2022-12-19T00:54:06.723Z,87.07
2022-12-19T00:56:37.697Z,86.88
2022-12-19T00:59:07.124Z,87.25
2022-12-19T01:01:38.199Z,87.16
2022-12-19T01:06:58.018Z,87.16
2022-12-19T01:09:33.246Z,87.14
2022-12-19T01:12:18.965Z,87.23
2022-12-19T01:14:48.113Z,87.52
2022-12-19T01:17:15.145Z,87.44
2022-12-19T01:19:44.426Z,87.28
2022-12-19T01:22:13.586Z,87.35
2022-12-19T01:24:41.256Z,87.49
2022-12-19T01:27:08.660Z,87.52
2022-12-19T01:29:35.610Z,87.52
2022-12-19T01:32:06.970Z,87.38
2022-12-19T01:34:33.931Z,87.52
2022-12-19T01:37:00.841Z,87.52
2022-12-19T01:39:30.421Z,87.67
2022-12-19T01:41:59.465Z,87.58
2022-12-19T01:44:26.977Z,87.57
2022-12-19T01:47:00.239Z,87.37
2022-12-19T01:49:37.155Z,87.60
2022-12-19T01:52:08.141Z,87.82
2022-12-19T01:54:40.947Z,87.55
2022-12-19T01:57:14.097Z,87.55
2022-12-19T01:59:47.138Z,87.40
2022-12-19T02:02:28.574Z,87.39
2022-12-19T02:04:55.573Z,87.32
2022-12-19T02:07:25.243Z,87.35
2022-12-19T02:09:56.885Z,87.41
2022-12-19T02:12:35.889Z,87.26
2022-12-19T02:15:05.882Z,87.03
2022-12-19T02:18:10.683Z,86.83
2022-12-19T02:22:00.561Z,86.86
2022-12-19T02:25:05.456Z,87.01
2022-12-19T02:28:21.247Z,86.84
2022-12-19T02:31:20.834Z,86.76
2022-12-19T02:34:17.805Z,86.79
2022-12-19T02:37:07.686Z,86.78
2022-12-19T02:39:38.675Z,86.68
2022-12-19T02:42:09.768Z,86.75
2022-12-19T02:44:51.923Z,86.52
2022-12-19T02:47:21.743Z,86.66
2022-12-19T02:49:49.350Z,86.18
2022-12-19T02:52:19.781Z,86.15
2022-12-19T02:54:52.737Z,86.33
2022-12-19T02:57:55.825Z,86.07
2022-12-19T03:00:27.033Z,86.22
2022-12-19T03:03:27.805Z,86.11
2022-12-19T03:06:24.408Z,86.28
2022-12-19T03:09:15.569Z,86.29
2022-12-19T03:11:45.466Z,86.04
2022-12-19T03:14:17.176Z,86.62
2022-12-19T03:16:44.515Z,86.17
2022-12-19T03:19:14.589Z,86.06
2022-12-19T03:21:46.558Z,86.30
2022-12-19T03:24:14.674Z,86.11
2022-12-19T03:26:51.992Z,86.41
2022-12-19T03:29:34.154Z,86.59
2022-12-19T03:32:05.567Z,86.63
2022-12-19T03:34:44.261Z,86.61
2022-12-19T03:37:18.735Z,86.37
2022-12-19T03:39:51.545Z,86.35
2022-12-19T03:42:39.684Z,86.48
2022-12-19T03:45:08.343Z,86.66
2022-12-19T03:47:52.431Z,86.57
2022-12-19T03:50:19.612Z,86.57
2022-12-19T03:53:17.172Z,86.58
2022-12-19T03:56:13.092Z,86.33
2022-12-19T03:58:46.710Z,86.23
2022-12-19T04:01:14.321Z,86.05
2022-12-19T04:03:41.534Z,86.42
2022-12-19T04:06:09.711Z,86.53
2022-12-19T04:08:37.131Z,86.76
2022-12-19T04:11:12.141Z,86.71
2022-12-19T04:13:46.538Z,87.04
2022-12-19T04:16:24.927Z,86.88
2022-12-19T04:18:59.335Z,86.94
2022-12-19T04:21:36.203Z,87.16
2022-12-19T04:24:15.682Z,87.02
2022-12-19T04:26:47.540Z,87.39
2022-12-19T04:29:15.410Z,87.23
2022-12-19T04:31:43.461Z,87.45
2022-12-19T04:34:11.174Z,87.84
2022-12-19T04:36:38.186Z,87.68
2022-12-19T04:39:05.152Z,87.69
2022-12-19T04:41:32.083Z,87.81
2022-12-19T04:43:59.055Z,87.92
2022-12-19T04:46:26.017Z,87.84
2022-12-19T04:48:53.090Z,87.65
2022-12-19T04:51:20.364Z,87.54
2022-12-19T04:53:47.399Z,87.55
2022-12-19T04:56:14.464Z,87.94
2022-12-19T04:58:41.626Z,87.66
2022-12-19T05:01:09.677Z,87.49
2022-12-19T05:03:37.255Z,87.60
2022-12-19T05:06:11.591Z,87.76
2022-12-19T05:08:41.356Z,87.67
2022-12-19T05:11:15.817Z,87.55
2022-12-19T05:13:46.151Z,87.75
2022-12-19T05:16:13.584Z,88.02
2022-12-19T05:18:40.917Z,87.95
2022-12-19T05:21:08.602Z,87.84
2022-12-19T05:23:35.876Z,87.87
2022-12-19T05:26:04.771Z,87.85
2022-12-19T05:28:32.598Z,87.89
2022-12-19T05:31:16.154Z,88.00
2022-12-19T05:33:44.196Z,88.07
2022-12-19T05:36:12.579Z,87.86
2022-12-19T05:38:40.121Z,87.92
2022-12-19T05:41:17.013Z,87.79
2022-12-19T05:43:46.403Z,88.01
2022-12-19T05:46:13.437Z,87.75
2022-12-19T05:48:40.470Z,87.73
2022-12-19T05:51:07.529Z,87.85
2022-12-19T05:53:39.693Z,88.04
2022-12-19T05:56:12.904Z,88.08
2022-12-19T05:58:42.320Z,88.13
2022-12-19T06:01:13.714Z,88.13
2022-12-19T06:03:40.810Z,88.27
2022-12-19T06:06:11.929Z,88.27
2022-12-19T06:08:39.601Z,88.40
2022-12-19T06:11:08.671Z,87.97
2022-12-19T06:13:36.843Z,88.13
2022-12-19T06:16:16.662Z,88.08
2022-12-19T06:18:45.749Z,88.30
2022-12-19T06:21:22.154Z,88.26
2022-12-19T06:23:50.069Z,88.54
2022-12-19T06:26:20.427Z,88.32
2022-12-19T06:28:49.091Z,88.55
2022-12-19T06:31:16.947Z,88.63
2022-12-19T06:33:44.094Z,88.41
2022-12-19T06:36:31.297Z,88.48
2022-12-19T06:38:58.937Z,88.74
2022-12-19T06:41:45.406Z,88.42
2022-12-19T06:44:15.433Z,88.63
2022-12-19T06:46:42.914Z,88.63
2022-12-19T06:49:11.829Z,88.51
2022-12-19T06:51:38.889Z,88.64
2022-12-19T06:54:06.614Z,88.59
2022-12-19T06:56:39.852Z,88.61
2022-12-19T06:59:11.229Z,88.63
2022-12-19T07:02:15.424Z,88.57
2022-12-19T07:04:49.661Z,88.87
2022-12-19T07:07:17.014Z,88.75
2022-12-19T07:09:43.938Z,88.59
2022-12-19T07:12:10.905Z,88.62
2022-12-19T07:14:38.073Z,88.59
2022-12-19T07:17:06.345Z,88.42
2022-12-19T07:19:35.233Z,88.61
2022-12-19T07:22:03.460Z,88.79
2022-12-19T07:24:30.788Z,88.74
2022-12-19T07:26:57.889Z,88.61
2022-12-19T07:29:25.393Z,88.70
2022-12-19T07:31:52.780Z,88.75
2022-12-19T07:34:20.007Z,88.93
2022-12-19T07:36:50.925Z,88.80
2022-12-19T07:39:17.987Z,88.65
2022-12-19T07:41:44.915Z,88.73
2022-12-19T07:44:13.268Z,88.84
2022-12-19T07:46:40.243Z,88.85
2022-12-19T07:49:07.176Z,88.95
2022-12-19T07:51:34.099Z,88.99
2022-12-19T07:54:01.028Z,88.81
2022-12-19T07:56:28.981Z,88.94
2022-12-19T07:58:55.917Z,88.92
2022-12-19T08:01:22.913Z,89.10
2022-12-19T08:03:49.907Z,89.22
2022-12-19T08:06:17.103Z,89.01
2022-12-19T08:08:44.031Z,89.18
2022-12-19T08:11:22.201Z,89.06
2022-12-19T08:13:49.550Z,89.12
2022-12-19T08:16:16.630Z,89.19
2022-12-19T08:18:44.037Z,89.14
2022-12-19T08:21:11.710Z,89.13
2022-12-19T08:23:38.788Z,89.13
2022-12-19T08:26:15.351Z,89.02
2022-12-19T08:28:42.371Z,89.17
2022-12-19T08:31:17.395Z,89.32
2022-12-19T08:33:45.530Z,89.34
2022-12-19T08:36:15.956Z,89.30
2022-12-19T08:38:42.910Z,89.43
2022-12-19T08:41:09.888Z,89.04
2022-12-19T08:43:38.032Z,89.14
2022-12-19T08:46:06.291Z,89.36
2022-12-19T08:48:34.203Z,89.34
2022-12-19T08:51:05.432Z,89.11
2022-12-19T08:53:35.980Z,89.55
2022-12-19T08:56:16.806Z,89.42
2022-12-19T08:58:44.022Z,89.28
2022-12-19T09:01:15.185Z,89.47
2022-12-19T09:03:54.594Z,89.49
2022-12-19T09:06:29.528Z,89.29
2022-12-19T09:08:59.936Z,89.56
2022-12-19T09:11:27.834Z,89.80
2022-12-19T09:13:57.432Z,89.66
2022-12-19T09:16:27.457Z,89.69
2022-12-19T09:18:58.464Z,89.78
2022-12-19T09:21:29.113Z,89.47
2022-12-19T09:24:06.959Z,89.61
2022-12-19T09:26:35.206Z,89.38
2022-12-19T09:29:03.540Z,88.87
2022-12-19T09:31:33.784Z,89.00
2022-12-19T09:34:00.724Z,88.96
2022-12-19T09:36:27.892Z,88.60
2022-12-19T09:38:57.732Z,88.40
2022-12-19T09:41:58.479Z,88.57
2022-12-19T09:45:32.109Z,88.52
2022-12-19T09:48:01.473Z,88.88
2022-12-19T09:51:09.201Z,88.97
2022-12-19T09:54:05.172Z,89.26
2022-12-19T09:56:45.570Z,89.54
2022-12-19T09:59:41.310Z,89.43
2022-12-19T10:02:48.325Z,89.61
2022-12-19T10:06:35.424Z,89.56
2022-12-19T10:09:14.057Z,89.79
2022-12-19T10:12:45.447Z,89.46
2022-12-19T10:15:26.140Z,89.46
2022-12-19T10:18:56.863Z,89.30
2022-12-19T10:24:59.604Z,89.44
2022-12-19T10:28:05.953Z,89.06
2022-12-19T10:31:02.667Z,89.32
2022-12-19T10:33:55.103Z,89.20
2022-12-19T10:36:36.474Z,89.33
2022-12-19T10:39:29.410Z,89.29
2022-12-19T10:42:09.245Z,89.76
2022-12-19T10:44:38.619Z,90.06
2022-12-19T10:47:05.720Z,89.39
2022-12-19T10:49:32.707Z,89.60
2022-12-19T10:52:03.661Z,89.36
2022-12-19T10:54:38.406Z,89.34
2022-12-19T10:57:29.320Z,89.66
2022-12-19T11:00:06.048Z,89.56
2022-12-19T11:02:39.150Z,89.75
2022-12-19T11:05:39.121Z,89.74
2022-12-19T11:08:09.144Z,89.43
2022-12-19T11:13:18.326Z,89.71
2022-12-19T11:17:44.993Z,89.52
2022-12-19T11:23:50.214Z,90.01
2022-12-19T11:29:18.794Z,89.38
2022-12-19T11:29:39.636Z,89.85
2022-12-19T11:29:41.741Z,90.59
2022-12-19T11:29:47.131Z,89.70
2022-12-19T11:34:23.604Z,90.31
2022-12-19T11:37:55.578Z,89.53
2022-12-19T11:40:48.936Z,90.42
2022-12-19T11:43:46.970Z,90.28
2022-12-19T11:46:49.167Z,90.77
2022-12-19T11:49:48.696Z,90.80
2022-12-19T11:53:07.775Z,90.75
2022-12-19T11:56:05.238Z,89.85
2022-12-19T11:59:12.230Z,90.16
2022-12-19T12:02:00.802Z,90.66
2022-12-19T12:04:54.724Z,90.06
2022-12-19T12:07:55.470Z,90.12
2022-12-19T12:17:26.296Z,90.30
2022-12-19T12:23:05.738Z,90.29
2022-12-19T12:28:44.308Z,89.84
2022-12-19T12:31:22.342Z,89.66
2022-12-19T12:31:48.871Z,89.33
2022-12-19T12:32:00.575Z,89.59
2022-12-19T12:32:03.188Z,89.43
2022-12-19T12:35:28.861Z,88.91
2022-12-19T12:39:24.282Z,89.93
2022-12-19T12:42:43.117Z,90.45
2022-12-19T12:45:39.981Z,89.88
2022-12-19T12:48:51.723Z,89.54
2022-12-19T12:51:19.282Z,89.95
2022-12-19T12:53:48.209Z,89.94
2022-12-19T12:56:17.989Z,89.95
2022-12-19T12:58:56.632Z,89.97
2022-12-19T13:01:33.797Z,90.52
2022-12-19T13:04:12.839Z,90.82
2022-12-19T13:07:20.638Z,90.19
2022-12-19T13:10:06.262Z,90.55
2022-12-19T13:12:52.232Z,90.04
2022-12-19T13:15:28.117Z,90.28
2022-12-19T13:17:54.924Z,90.12
2022-12-19T13:20:27.730Z,90.13
2022-12-19T13:22:58.241Z,90.22
2022-12-19T13:25:49.115Z,90.09
2022-12-19T13:28:39.146Z,90.47
2022-12-19T13:31:21.413Z,90.72
2022-12-19T13:33:54.832Z,90.03
2022-12-19T13:39:54.167Z,90.29
2022-12-19T13:40:33.085Z,90.15
2022-12-19T13:43:35.403Z,90.73
2022-12-19T13:46:23.742Z,90.04
2022-12-19T13:48:55.188Z,90.18
2022-12-19T13:51:22.376Z,90.46
2022-12-19T13:53:59.316Z,90.48
2022-12-19T13:56:30.631Z,90.73
2022-12-19T13:59:02.079Z,90.49
2022-12-19T14:01:35.724Z,90.65
2022-12-19T14:04:11.531Z,90.88
2022-12-19T14:06:46.205Z,90.35
2022-12-19T14:11:28.801Z,90.10
2022-12-19T14:13:47.150Z,90.75
2022-12-19T14:15:52.111Z,90.37
2022-12-19T14:18:44.565Z,89.99
2022-12-19T14:22:11.705Z,90.50
2022-12-19T14:24:22.634Z,90.09
2022-12-19T14:28:19.382Z,90.82
2022-12-19T14:30:27.711Z,90.49
2022-12-19T14:33:40.835Z,90.40
2022-12-19T14:36:05.799Z,90.80
2022-12-19T14:39:25.838Z,90.44
2022-12-19T14:41:48.464Z,90.35
2022-12-19T14:52:52.389Z,89.81
2022-12-19T14:53:51.677Z,89.68
2022-12-19T14:54:10.514Z,89.91
2022-12-19T14:54:38.019Z,89.82
2022-12-19T14:56:40.699Z,89.94
2022-12-19T14:59:06.088Z,90.07
2022-12-19T15:01:34.898Z,89.68
2022-12-19T15:04:48.981Z,89.68
2022-12-19T15:07:09.741Z,89.23
2022-12-19T15:11:04.819Z,89.35
2022-12-19T15:14:56.144Z,89.71
2022-12-19T15:16:26.792Z,90.05
2022-12-19T15:18:58.448Z,89.66
2022-12-19T15:21:26.607Z,89.85
2022-12-19T15:23:53.699Z,89.18
2022-12-19T15:26:36.355Z,89.09
2022-12-19T15:29:13.988Z,89.30
2022-12-19T15:31:44.978Z,88.79
2022-12-19T15:34:36.339Z,88.96
2022-12-19T15:37:05.226Z,89.10
2022-12-19T15:39:32.326Z,88.72
2022-12-19T15:42:01.297Z,88.72
2022-12-19T15:44:39.474Z,88.55
2022-12-19T15:47:18.006Z,88.43
2022-12-19T15:49:45.565Z,88.92
2022-12-19T15:52:17.821Z,88.72
2022-12-19T15:54:48.521Z,88.67
2022-12-19T15:57:44.782Z,88.39
2022-12-19T16:00:25.644Z,88.51
2022-12-19T16:05:42.116Z,88.19
2022-12-19T16:08:14.610Z,88.28
2022-12-19T16:10:43.353Z,88.64
2022-12-19T16:13:20.653Z,88.68
2022-12-19T16:15:48.058Z,88.42
2022-12-19T16:18:16.011Z,88.59
2022-12-19T16:20:43.495Z,88.77
2022-12-19T16:23:11.707Z,88.53
2022-12-19T16:25:46.278Z,88.51
2022-12-19T16:28:34.707Z,88.43
2022-12-19T16:31:15.529Z,88.44
2022-12-19T16:33:42.625Z,88.11
2022-12-19T16:36:09.748Z,88.18
2022-12-19T16:38:36.816Z,88.20
2022-12-19T16:41:03.843Z,88.48
2022-12-19T16:43:38.426Z,88.51
2022-12-19T16:46:07.480Z,88.53
2022-12-19T16:48:35.825Z,88.38
2022-12-19T16:51:03.284Z,88.59
2022-12-19T16:53:31.037Z,88.72
2022-12-19T16:55:59.567Z,88.49
2022-12-19T16:58:28.582Z,88.11
2022-12-19T17:00:56.589Z,88.54
2022-12-19T17:03:32.280Z,88.18
2022-12-19T17:05:59.564Z,88.35
2022-12-19T17:08:26.594Z,88.24
2022-12-19T17:10:54.605Z,88.16
2022-12-19T17:13:23.514Z,88.53
2022-12-19T17:15:56.261Z,88.69
2022-12-19T17:18:31.522Z,88.53
2022-12-19T17:20:58.533Z,88.71
2022-12-19T17:23:26.715Z,88.44
2022-12-19T17:25:54.931Z,88.13
2022-12-19T17:28:22.298Z,88.24
2022-12-19T17:30:53.393Z,88.33
2022-12-19T17:33:23.703Z,88.43
2022-12-19T17:35:50.655Z,88.36
2022-12-19T17:38:18.127Z,88.28
2022-12-19T17:40:45.580Z,88.06
2022-12-19T17:43:13.313Z,88.49
2022-12-19T17:45:41.125Z,88.40
2022-12-19T17:48:27.882Z,88.61
2022-12-19T17:50:56.093Z,88.28
2022-12-19T17:53:23.860Z,88.05
2022-12-19T17:55:51.397Z,87.55
2022-12-19T17:58:18.738Z,87.76
2022-12-19T18:00:47.359Z,87.79
2022-12-19T18:03:25.609Z,88.04
2022-12-19T18:05:55.270Z,88.42
2022-12-19T18:08:32.066Z,87.92
2022-12-19T18:11:02.699Z,88.34
2022-12-19T18:13:31.258Z,88.60
2022-12-19T18:16:01.317Z,88.87
2022-12-19T18:18:35.275Z,89.16
2022-12-19T18:21:04.256Z,89.58
2022-12-19T18:23:31.553Z,89.15
2022-12-19T18:26:01.763Z,89.48
2022-12-19T18:28:30.005Z,89.51
2022-12-19T18:31:25.342Z,89.56
2022-12-19T18:33:54.664Z,89.36
2022-12-19T18:36:28.617Z,89.54
2022-12-19T18:38:57.284Z,89.38
2022-12-19T18:41:24.427Z,89.15
2022-12-19T18:43:51.376Z,89.35
2022-12-19T18:46:28.175Z,88.89
2022-12-19T18:48:55.561Z,89.06
2022-12-19T18:51:23.089Z,89.22
2022-12-19T18:53:50.992Z,88.65
2022-12-19T18:56:18.162Z,88.90
2022-12-19T18:58:45.071Z,88.79
2022-12-19T19:01:17.777Z,88.87
2022-12-19T19:03:56.715Z,88.95
2022-12-19T19:06:28.086Z,88.90
2022-12-19T19:08:58.668Z,88.59
2022-12-19T19:11:49.611Z,88.38
2022-12-19T19:14:16.574Z,88.38
2022-12-19T19:16:43.714Z,88.71
2022-12-19T19:19:14.550Z,88.76
2022-12-19T19:21:42.600Z,88.38
2022-12-19T19:24:18.530Z,88.92
2022-12-19T19:26:45.572Z,88.97
2022-12-19T19:29:18.655Z,88.49
2022-12-19T19:31:49.938Z,88.93
2022-12-19T19:34:23.857Z,89.07
2022-12-19T19:36:54.607Z,89.14
2022-12-19T19:39:22.754Z,89.07
2022-12-19T19:41:49.780Z,88.98
2022-12-19T19:44:16.746Z,88.66
2022-12-19T19:46:43.741Z,88.47
2022-12-19T19:49:10.799Z,88.35
2022-12-19T19:51:37.730Z,88.18
2022-12-19T19:54:05.089Z,88.30
2022-12-19T19:56:32.318Z,88.61
2022-12-19T19:59:00.580Z,88.18
2022-12-19T20:01:27.850Z,88.29
2022-12-19T20:03:55.006Z,88.34
2022-12-19T20:06:22.156Z,88.87
2022-12-19T20:08:49.332Z,88.70
2022-12-19T20:11:16.724Z,88.46
2022-12-19T20:13:43.722Z,88.80
2022-12-19T20:16:18.111Z,88.96
2022-12-19T20:18:51.313Z,89.16
2022-12-19T20:21:20.073Z,89.31
2022-12-19T20:23:47.445Z,89.00
2022-12-19T20:26:16.309Z,89.10
2022-12-19T20:28:49.006Z,89.05
2022-12-19T20:31:20.989Z,89.33
2022-12-19T20:33:48.586Z,88.91
2022-12-19T20:36:16.975Z,89.21
2022-12-19T20:38:44.271Z,89.06
2022-12-19T20:41:11.363Z,88.36
2022-12-19T20:43:38.917Z,88.19
2022-12-19T20:46:10.507Z,88.42
2022-12-19T20:48:37.901Z,88.41
2022-12-19T20:51:06.515Z,88.57
2022-12-19T20:53:35.706Z,88.64
2022-12-19T20:56:05.190Z,88.82
2022-12-19T20:58:35.156Z,88.33
2022-12-19T21:01:10.781Z,88.57
2022-12-19T21:03:39.329Z,88.58
2022-12-19T21:06:08.296Z,87.87
2022-12-19T21:08:35.779Z,87.83
2022-12-19T21:11:05.371Z,88.27
2022-12-19T21:13:33.061Z,88.44
2022-12-19T21:16:03.241Z,88.65
2022-12-19T21:18:30.597Z,88.72
2022-12-19T21:20:59.865Z,88.91
2022-12-19T21:23:27.634Z,88.88
2022-12-19T21:26:00.471Z,88.71
2022-12-19T21:28:27.812Z,88.95
2022-12-19T21:31:10.832Z,88.49
2022-12-19T21:33:37.915Z,88.71
2022-12-19T21:36:11.008Z,88.57
2022-12-19T21:38:38.559Z,88.71
2022-12-19T21:41:07.711Z,88.90
2022-12-19T21:43:35.494Z,88.95
2022-12-19T21:46:14.227Z,88.96
2022-12-19T21:48:52.898Z,89.45
2022-12-19T21:51:23.651Z,89.02
2022-12-19T21:54:02.923Z,89.33
2022-12-19T21:56:39.968Z,89.50
2022-12-19T21:59:13.526Z,89.37
2022-12-19T22:01:42.144Z,89.10
2022-12-19T22:04:22.456Z,89.22
2022-12-19T22:06:51.131Z,89.55
2022-12-19T22:09:23.426Z,89.53
2022-12-19T22:11:50.592Z,89.23
2022-12-19T22:14:18.178Z,89.06
2022-12-19T22:16:45.468Z,89.15
2022-12-19T22:19:16.253Z,89.09
2022-12-19T22:21:44.032Z,89.06
2022-12-19T22:24:14.021Z,88.65
2022-12-19T22:26:41.348Z,88.98
2022-12-19T22:29:11.233Z,89.41
2022-12-19T22:31:39.442Z,89.50
2022-12-19T22:34:13.803Z,89.14
2022-12-19T22:36:42.700Z,89.29
2022-12-19T22:39:14.051Z,88.68
2022-12-19T22:41:42.011Z,89.12
2022-12-19T22:44:21.231Z,88.80
2022-12-19T22:46:49.006Z,89.39
2022-12-19T22:49:16.234Z,89.03
2022-12-19T22:51:43.529Z,89.23
2022-12-19T22:54:12.026Z,89.23
2022-12-19T22:56:40.145Z,89.37
2022-12-19T22:59:10.043Z,89.31
2022-12-19T23:01:41.988Z,89.00
2022-12-19T23:04:13.632Z,89.10
2022-12-19T23:06:40.940Z,89.39
2022-12-19T23:09:11.035Z,89.48
2022-12-19T23:11:41.319Z,89.19
2022-12-19T23:14:13.482Z,88.92
2022-12-19T23:16:42.150Z,88.85
2022-12-19T23:19:10.522Z,89.00
2022-12-19T23:21:37.856Z,89.07
2022-12-19T23:24:05.373Z,88.91
2022-12-19T23:26:36.401Z,89.21
2022-12-19T23:29:08.872Z,89.05
2022-12-19T23:31:39.403Z,89.06
2022-12-19T23:34:06.497Z,89.20
2022-12-19T23:39:20.448Z,88.87
2022-12-19T23:41:47.389Z,88.87
2022-12-19T23:44:15.247Z,89.27
2022-12-19T23:46:42.276Z,88.77
2022-12-19T23:49:09.320Z,88.73
2022-12-19T23:51:36.283Z,89.21
2022-12-19T23:54:03.414Z,88.84
2022-12-19T23:56:32.165Z,88.74
2022-12-19T23:58:59.847Z,88.69
